Fiesta Key, Florida
Current Conditions -  °F | °C
As of 11:53 PM on Friday 21 Nov 2014 (Local Time) from KMTH Reporting Station
Scattered Clouds Scattered Clouds  
Wind Chill: 76°   Ceiling: Unl
Heat Index: 76°   Visibility: 10mi
Dew Point: 72°   Wind: 15mph
Humidity: 87%   Direction: 80°E
Pressure: 30.11"   Gusts: 26mph
Location:  24.8241°N, 80.818°W
Report Text: KMTH 220453Z AUTO 08013G23KT 10SM FEW018 SCT032 SCT055 24/22 A3011 RMK AO2 SLP195 T02440222 402440211
Loading
Personal Weather Stations






























Interactive Weather Map New forecast layout! Learn more

10-Day Weather Forecast

Advertisements
Track Severe Weather on mobile